Time;durP1;ratioP1;P1;durP2;ratioP2;P2;SDS_P1;SDS_P2;PMS_P1;PMS_P2;Temp;Humidity;BMP_temperature;BMP_pressure;BME280_temperature;BME280_humidity;BME280_pressure;Samples;Min_cycle;Max_cycle;Signal;HPM_P1;HPM_P2
2023/09/15 00:00:46;;;;;;;1.85;1.13;;;;;;;;;;5071905;28;20494;-64
2023/09/15 00:03:15;;;;;;;3.13;1.75;;;;;;;;;;5088662;28;20053;-63
2023/09/15 00:05:42;;;;;;;2.42;1.38;;;;;;;;;;5083009;28;20053;-63
2023/09/15 00:08:10;;;;;;;2.05;1.25;;;;;;;;;;5085779;28;20052;-63
2023/09/15 00:10:39;;;;;;;5.93;1.30;;;;;;;;;;5085185;28;20048;-63
2023/09/15 00:13:07;;;;;;;2.97;1.05;;;;;;;;;;5088208;28;20519;-64
2023/09/15 00:15:34;;;;;;;1.98;1.13;;;;;;;;;;5076871;28;20417;-63
2023/09/15 00:18:04;;;;;;;2.53;1.10;;;;;;;;;;5075213;28;20048;-63
2023/09/15 00:20:34;;;;;;;2.90;1.30;;;;;;;;;;5078941;28;20053;-64
2023/09/15 00:23:01;;;;;;;2.47;1.40;;;;;;;;;;5084542;28;20051;-64
2023/09/15 00:25:29;;;;;;;5.22;1.88;;;;;;;;;;5083241;28;20075;-64
2023/09/15 00:27:57;;;;;;;3.60;0.93;;;;;;;;;;5083544;28;20512;-64
2023/09/15 00:30:25;;;;;;;4.03;1.38;;;;;;;;;;5079418;28;20577;-64
2023/09/15 00:32:51;;;;;;;2.28;1.23;;;;;;;;;;5085958;28;20052;-63
2023/09/15 00:35:20;;;;;;;3.40;1.38;;;;;;;;;;5084275;28;20481;-63
2023/09/15 00:37:49;;;;;;;1.90;1.00;;;;;;;;;;5076134;28;20044;-63
2023/09/15 00:40:20;;;;;;;3.25;1.60;;;;;;;;;;5074366;28;20056;-63
2023/09/15 00:42:48;;;;;;;2.92;1.20;;;;;;;;;;5082094;28;20063;-63
2023/09/15 00:45:15;;;;;;;2.25;1.17;;;;;;;;;;5077816;28;20052;-63
2023/09/15 00:47:46;;;;;;;2.40;1.05;;;;;;;;;;5087373;28;20048;-63
2023/09/15 00:50:14;;;;;;;2.03;1.38;;;;;;;;;;5080439;28;20056;-63
2023/09/15 00:52:41;;;;;;;3.20;1.63;;;;;;;;;;5080208;28;20048;-63
2023/09/15 00:55:11;;;;;;;1.95;1.20;;;;;;;;;;5080013;28;20048;-63
2023/09/15 00:57:38;;;;;;;1.80;1.17;;;;;;;;;;5087530;28;20060;-63
2023/09/15 01:00:13;;;;;;;3.35;1.65;;;;;;;;;;5080697;28;20481;-63
2023/09/15 01:02:40;;;;;;;3.28;1.60;;;;;;;;;;5078099;28;20055;-64
2023/09/15 01:05:08;;;;;;;2.10;1.17;;;;;;;;;;5086141;28;20048;-64
2023/09/15 01:07:36;;;;;;;2.63;0.98;;;;;;;;;;5074123;28;20065;-63
2023/09/15 01:10:04;;;;;;;2.05;0.90;;;;;;;;;;5079679;28;20059;-63
2023/09/15 01:12:33;;;;;;;2.42;1.50;;;;;;;;;;5092312;28;20055;-64
2023/09/15 01:15:02;;;;;;;1.55;0.85;;;;;;;;;;5086937;28;20061;-63
2023/09/15 01:17:29;;;;;;;;;;;;;;;;;;5073129;28;20048;-64
2023/09/15 01:20:06;;;;;;;2.50;1.00;;;;;;;;;;5075172;28;19931;-64
2023/09/15 01:22:48;;;;;;;3.88;1.20;;;;;;;;;;5081036;28;20040;-64
2023/09/15 01:25:32;;;;;;;2.13;1.20;;;;;;;;;;5074821;28;20055;-64
2023/09/15 01:28:04;;;;;;;2.40;1.33;;;;;;;;;;5058330;28;20055;-63
2023/09/15 01:30:33;;;;;;;1.88;1.20;;;;;;;;;;5081626;28;20048;-64
2023/09/15 01:33:04;;;;;;;2.95;1.42;;;;;;;;;;5078911;28;20378;-64
2023/09/15 01:35:34;;;;;;;2.63;1.27;;;;;;;;;;5090260;28;20055;-64
2023/09/15 01:38:01;;;;;;;3.13;1.45;;;;;;;;;;5081618;28;20044;-64
2023/09/15 01:40:28;;;;;;;4.25;1.77;;;;;;;;;;5087215;28;20059;-64
2023/09/15 01:42:55;;;;;;;3.15;1.40;;;;;;;;;;5081573;28;20044;-64
2023/09/15 01:45:22;;;;;;;3.75;1.00;;;;;;;;;;5071389;28;20049;-64
2023/09/15 01:47:51;;;;;;;2.70;1.35;;;;;;;;;;5088755;28;20048;-64
2023/09/15 01:50:18;;;;;;;2.38;1.05;;;;;;;;;;5079389;28;20059;-64
2023/09/15 01:52:46;;;;;;;2.97;0.98;;;;;;;;;;5086651;28;20047;-64
2023/09/15 01:55:12;;;;;;;2.90;1.25;;;;;;;;;;5082540;28;20493;-64
2023/09/15 01:57:39;;;;;;;2.97;1.65;;;;;;;;;;5077767;28;20134;-64
2023/09/15 02:00:07;;;;;;;3.03;1.50;;;;;;;;;;5082518;28;20060;-64
2023/09/15 02:02:34;;;;;;;2.45;1.27;;;;;;;;;;5083767;28;20162;-64
2023/09/15 02:05:02;;;;;;;2.35;1.00;;;;;;;;;;5081507;28;20052;-64
2023/09/15 02:07:29;;;;;;;2.47;1.10;;;;;;;;;;5082666;28;20056;-64
2023/09/15 02:09:56;;;;;;;2.95;1.60;;;;;;;;;;5081149;28;20075;-64
2023/09/15 02:12:22;;;;;;;2.65;1.10;;;;;;;;;;5077518;28;20370;-64
2023/09/15 02:14:49;;;;;;;2.05;1.20;;;;;;;;;;5082687;28;20059;-63
2023/09/15 02:17:16;;;;;;;2.03;1.35;;;;;;;;;;5088693;28;20056;-63
2023/09/15 02:19:43;;;;;;;2.40;1.13;;;;;;;;;;5084185;28;20453;-64
2023/09/15 02:22:11;;;;;;;1.90;1.08;;;;;;;;;;5080637;28;20044;-64
2023/09/15 02:24:38;;;;;;;1.83;1.20;;;;;;;;;;5073885;28;20055;-64
2023/09/15 02:27:05;;;;;;;3.00;1.08;;;;;;;;;;5091967;28;20048;-63
2023/09/15 02:29:32;;;;;;;4.00;1.45;;;;;;;;;;5080831;28;20066;-64
2023/09/15 02:31:59;;;;;;;2.25;1.08;;;;;;;;;;5079593;28;20059;-64
2023/09/15 02:34:25;;;;;;;3.63;1.10;;;;;;;;;;5078784;28;20052;-63
2023/09/15 02:36:52;;;;;;;3.75;1.65;;;;;;;;;;5085427;28;20055;-64
2023/09/15 02:39:20;;;;;;;1.80;1.17;;;;;;;;;;5074028;28;20504;-64
2023/09/15 02:41:47;;;;;;;3.08;1.05;;;;;;;;;;5078517;28;20057;-64
2023/09/15 02:44:15;;;;;;;2.00;0.95;;;;;;;;;;5077531;28;20121;-63
2023/09/15 02:46:42;;;;;;;3.10;1.25;;;;;;;;;;5070760;28;20492;-63
2023/09/15 02:49:09;;;;;;;2.60;1.17;;;;;;;;;;5072143;28;20062;-63
2023/09/15 02:51:37;;;;;;;2.42;1.25;;;;;;;;;;5082394;28;20063;-63
2023/09/15 02:54:04;;;;;;;2.60;1.40;;;;;;;;;;5076788;28;20418;-63
2023/09/15 02:56:32;;;;;;;2.88;1.08;;;;;;;;;;5079791;28;20052;-64
2023/09/15 02:58:58;;;;;;;2.83;1.42;;;;;;;;;;5080670;28;20063;-63
2023/09/15 03:01:25;;;;;;;2.30;1.38;;;;;;;;;;5071645;28;20049;-63
2023/09/15 03:03:52;;;;;;;3.08;0.93;;;;;;;;;;5072266;28;20085;-63
2023/09/15 03:06:20;;;;;;;2.63;1.35;;;;;;;;;;5081018;28;20048;-63
2023/09/15 03:08:47;;;;;;;2.95;1.42;;;;;;;;;;5090586;28;20405;-63
2023/09/15 03:11:16;;;;;;;1.85;1.27;;;;;;;;;;5091346;28;20052;-63
2023/09/15 03:13:44;;;;;;;5.22;1.10;;;;;;;;;;5085705;28;20425;-64
2023/09/15 03:16:12;;;;;;;2.42;1.25;;;;;;;;;;5076997;28;20104;-62
2023/09/15 03:18:39;;;;;;;1.85;1.05;;;;;;;;;;5092926;28;20052;-63
2023/09/15 03:21:06;;;;;;;2.20;1.05;;;;;;;;;;5089431;28;20067;-63
2023/09/15 03:23:33;;;;;;;2.70;1.55;;;;;;;;;;5076210;28;20371;-63
2023/09/15 03:26:00;;;;;;;2.35;1.40;;;;;;;;;;5076196;28;20051;-64
2023/09/15 03:28:27;;;;;;;2.85;1.67;;;;;;;;;;5072494;28;20496;-63
2023/09/15 03:30:55;;;;;;;2.03;1.25;;;;;;;;;;5078315;28;20048;-63
2023/09/15 03:33:23;;;;;;;2.25;1.15;;;;;;;;;;5090899;28;20044;-64
2023/09/15 03:35:49;;;;;;;1.80;1.25;;;;;;;;;;5094202;28;20052;-63
2023/09/15 03:38:16;;;;;;;1.65;0.90;;;;;;;;;;5089880;28;20127;-63
2023/09/15 03:40:43;;;;;;;5.38;1.35;;;;;;;;;;5095971;28;20071;-63
2023/09/15 03:43:10;;;;;;;2.60;1.35;;;;;;;;;;5095805;28;20397;-64
2023/09/15 03:45:36;;;;;;;2.13;1.10;;;;;;;;;;5075870;28;20382;-64
2023/09/15 03:48:05;;;;;;;2.60;1.02;;;;;;;;;;5082570;28;20117;-64
2023/09/15 03:50:32;;;;;;;2.47;1.33;;;;;;;;;;5092888;28;20052;-64
2023/09/15 03:52:59;;;;;;;2.10;1.63;;;;;;;;;;5076334;28;20048;-63
2023/09/15 03:55:26;;;;;;;2.58;1.25;;;;;;;;;;5075439;28;20067;-64
2023/09/15 03:57:53;;;;;;;1.45;1.00;;;;;;;;;;5075973;28;20053;-63
2023/09/15 04:00:21;;;;;;;3.38;1.48;;;;;;;;;;5074744;28;20059;-63
2023/09/15 04:02:48;;;;;;;2.45;1.00;;;;;;;;;;5096011;28;20370;-64
2023/09/15 04:05:16;;;;;;;1.75;1.17;;;;;;;;;;5093047;28;20053;-63
2023/09/15 04:07:43;;;;;;;3.55;1.42;;;;;;;;;;5088185;28;20499;-64
2023/09/15 04:10:10;;;;;;;2.42;1.30;;;;;;;;;;5091075;28;20102;-63
2023/09/15 04:12:37;;;;;;;5.20;1.20;;;;;;;;;;5095995;28;20055;-64
2023/09/15 04:15:04;;;;;;;2.55;1.10;;;;;;;;;;5095462;28;20424;-64
2023/09/15 04:17:31;;;;;;;2.67;1.30;;;;;;;;;;5075064;28;20052;-63
2023/09/15 04:19:58;;;;;;;2.25;0.90;;;;;;;;;;5074634;28;20407;-63
2023/09/15 04:22:27;;;;;;;2.25;1.33;;;;;;;;;;5081315;28;20052;-64
2023/09/15 04:24:53;;;;;;;3.28;1.17;;;;;;;;;;5095270;28;20052;-63
2023/09/15 04:27:20;;;;;;;1.90;1.25;;;;;;;;;;5093361;28;20051;-64
2023/09/15 04:29:50;;;;;;;2.45;1.30;;;;;;;;;;5095427;28;20052;-64
2023/09/15 04:32:17;;;;;;;2.40;1.40;;;;;;;;;;5077094;28;20053;-64
2023/09/15 04:34:44;;;;;;;5.15;1.30;;;;;;;;;;5074737;28;20059;-64
2023/09/15 04:37:11;;;;;;;2.80;1.08;;;;;;;;;;5085242;28;20048;-64
2023/09/15 04:39:39;;;;;;;2.10;0.95;;;;;;;;;;5095134;28;20055;-64
2023/09/15 04:42:06;;;;;;;2.05;1.10;;;;;;;;;;5090670;28;20052;-63
2023/09/15 04:44:32;;;;;;;2.78;1.13;;;;;;;;;;5076433;28;20060;-64
2023/09/15 04:47:00;;;;;;;2.85;1.60;;;;;;;;;;5073892;28;20048;-64
2023/09/15 04:49:27;;;;;;;2.00;1.30;;;;;;;;;;5075680;28;20048;-64
2023/09/15 04:51:54;;;;;;;2.30;1.17;;;;;;;;;;5073882;28;20063;-64
2023/09/15 04:54:22;;;;;;;4.10;1.42;;;;;;;;;;5073336;28;20055;-64
2023/09/15 04:56:50;;;;;;;4.15;1.58;;;;;;;;;;5084685;28;20064;-64
2023/09/15 04:59:16;;;;;;;1.52;0.90;;;;;;;;;;5093724;28;20048;-64
2023/09/15 05:01:43;;;;;;;2.50;1.20;;;;;;;;;;5093157;28;20056;-64
2023/09/15 05:04:10;;;;;;;2.17;1.38;;;;;;;;;;5094015;28;20048;-64
2023/09/15 05:06:37;;;;;;;2.00;0.90;;;;;;;;;;5089697;28;20114;-64
2023/09/15 05:09:05;;;;;;;2.15;1.17;;;;;;;;;;5094212;28;20047;-64
2023/09/15 05:11:32;;;;;;;2.75;1.48;;;;;;;;;;5094308;28;20048;-63
2023/09/15 05:14:00;;;;;;;1.65;0.80;;;;;;;;;;5094587;28;20063;-64
2023/09/15 05:16:27;;;;;;;2.88;1.45;;;;;;;;;;5083821;28;20052;-64
2023/09/15 05:18:53;;;;;;;2.53;1.35;;;;;;;;;;5094357;28;20055;-64
2023/09/15 05:21:20;;;;;;;2.08;1.00;;;;;;;;;;5090308;28;20052;-63
2023/09/15 05:23:47;;;;;;;2.25;1.38;;;;;;;;;;5093738;28;20071;-63
2023/09/15 05:26:14;;;;;;;1.63;1.20;;;;;;;;;;5090774;28;20059;-63
2023/09/15 05:28:40;;;;;;;4.53;1.60;;;;;;;;;;5074736;28;20057;-64
2023/09/15 05:31:08;;;;;;;3.13;1.48;;;;;;;;;;5080354;28;20063;-64
2023/09/15 05:33:35;;;;;;;2.30;1.25;;;;;;;;;;5094318;28;20044;-64
2023/09/15 05:36:02;;;;;;;2.42;1.42;;;;;;;;;;5083161;28;20052;-64
2023/09/15 05:38:29;;;;;;;3.10;1.30;;;;;;;;;;5073368;28;20442;-64
2023/09/15 05:40:56;;;;;;;2.85;1.58;;;;;;;;;;5073794;28;20064;-63
2023/09/15 05:43:23;;;;;;;6.03;1.85;;;;;;;;;;5073681;28;20048;-64
2023/09/15 05:45:50;;;;;;;4.15;1.30;;;;;;;;;;5077260;28;20523;-64
2023/09/15 05:48:22;;;;;;;1.85;1.25;;;;;;;;;;5093709;28;20138;-64
2023/09/15 05:50:49;;;;;;;4.18;1.77;;;;;;;;;;5087380;28;20417;-64
2023/09/15 05:53:16;;;;;;;4.50;1.33;;;;;;;;;;5093975;28;20052;-64
2023/09/15 05:55:43;;;;;;;2.63;1.80;;;;;;;;;;5093588;28;20051;-64
2023/09/15 05:58:10;;;;;;;3.45;1.55;;;;;;;;;;5093210;28;20052;-64
2023/09/15 06:00:36;;;;;;;2.90;1.88;;;;;;;;;;5091263;28;20086;-64
2023/09/15 06:03:04;;;;;;;1.50;1.13;;;;;;;;;;5093800;28;20048;-64
2023/09/15 06:05:32;;;;;;;3.10;1.20;;;;;;;;;;5087325;28;20059;-64
2023/09/15 06:07:59;;;;;;;4.30;1.98;;;;;;;;;;5089099;28;20052;-64
2023/09/15 06:10:25;;;;;;;2.45;1.20;;;;;;;;;;5092319;28;20052;-64
2023/09/15 06:12:52;;;;;;;2.80;1.20;;;;;;;;;;5093708;28;20461;-64
2023/09/15 06:15:21;;;;;;;2.65;1.58;;;;;;;;;;5092134;28;20067;-63
2023/09/15 06:17:48;;;;;;;3.58;1.65;;;;;;;;;;5072966;28;20052;-64
2023/09/15 06:20:15;;;;;;;2.50;1.45;;;;;;;;;;5084975;28;20071;-64
2023/09/15 06:22:43;;;;;;;3.28;1.80;;;;;;;;;;5086901;28;20488;-63
2023/09/15 06:25:10;;;;;;;3.03;1.77;;;;;;;;;;5093092;28;20063;-64
2023/09/15 06:27:36;;;;;;;3.60;1.95;;;;;;;;;;5092933;28;20059;-64
2023/09/15 06:30:04;;;;;;;2.65;1.40;;;;;;;;;;5092877;28;20056;-64
2023/09/15 06:32:31;;;;;;;3.13;1.63;;;;;;;;;;5086745;28;20048;-64
2023/09/15 06:34:58;;;;;;;3.55;1.75;;;;;;;;;;5072564;28;20063;-64
2023/09/15 06:37:25;;;;;;;2.60;1.38;;;;;;;;;;5079218;28;20063;-64
2023/09/15 06:39:53;;;;;;;2.58;1.30;;;;;;;;;;5091536;28;20055;-64
2023/09/15 06:42:20;;;;;;;3.35;1.90;;;;;;;;;;5089869;28;20509;-64
2023/09/15 06:44:46;;;;;;;2.63;1.48;;;;;;;;;;5073235;28;20060;-63
2023/09/15 06:47:13;;;;;;;3.17;1.88;;;;;;;;;;5072513;28;20049;-64
2023/09/15 06:49:40;;;;;;;3.05;1.70;;;;;;;;;;5072538;28;20056;-64
2023/09/15 06:52:07;;;;;;;4.32;2.20;;;;;;;;;;5069278;28;20052;-64
2023/09/15 06:54:34;;;;;;;7.93;2.00;;;;;;;;;;5086679;28;20071;-63
2023/09/15 06:57:02;;;;;;;12.85;2.67;;;;;;;;;;5078835;28;21621;-63
2023/09/15 06:59:29;;;;;;;2.23;1.53;;;;;;;;;;5085900;28;20055;-63
2023/09/15 07:01:58;;;;;;;4.10;1.75;;;;;;;;;;5072644;28;20064;-63
2023/09/15 07:04:25;;;;;;;3.05;1.70;;;;;;;;;;5087790;28;20066;-64
2023/09/15 07:06:52;;;;;;;4.22;1.55;;;;;;;;;;5088651;28;20059;-64
2023/09/15 07:09:19;;;;;;;3.60;1.92;;;;;;;;;;5092376;28;20059;-62
2023/09/15 07:11:45;;;;;;;3.50;1.30;;;;;;;;;;5087045;28;20048;-63
2023/09/15 07:14:14;;;;;;;3.47;1.35;;;;;;;;;;5082983;28;20059;-63
2023/09/15 07:16:41;;;;;;;4.35;1.70;;;;;;;;;;5085095;28;20048;-62
2023/09/15 07:19:07;;;;;;;2.85;1.30;;;;;;;;;;5096303;28;20389;-62
2023/09/15 07:21:36;;;;;;;3.15;1.38;;;;;;;;;;5088923;28;20047;-63
2023/09/15 07:24:05;;;;;;;4.35;2.22;;;;;;;;;;5096138;28;20059;-63
2023/09/15 07:26:31;;;;;;;5.10;1.85;;;;;;;;;;5086131;28;20507;-63
2023/09/15 07:28:58;;;;;;;3.08;1.73;;;;;;;;;;5092682;28;20056;-63
2023/09/15 07:31:27;;;;;;;2.88;1.88;;;;;;;;;;5095248;28;20048;-63
2023/09/15 07:33:54;;;;;;;2.78;1.33;;;;;;;;;;5091453;28;20041;-63
2023/09/15 07:36:20;;;;;;;3.20;1.60;;;;;;;;;;5076997;28;20048;-64
2023/09/15 07:38:47;;;;;;;3.25;1.80;;;;;;;;;;5076138;28;20478;-64
2023/09/15 07:41:14;;;;;;;3.33;1.67;;;;;;;;;;5074712;28;20052;-63
2023/09/15 07:43:41;;;;;;;3.35;1.85;;;;;;;;;;5089424;28;20059;-64
2023/09/15 07:46:08;;;;;;;3.58;1.70;;;;;;;;;;5079506;28;20382;-63
2023/09/15 07:48:36;;;;;;;3.28;1.45;;;;;;;;;;5085527;28;20143;-64
2023/09/15 07:51:03;;;;;;;3.17;1.65;;;;;;;;;;5094386;28;20056;-64
2023/09/15 07:53:31;;;;;;;3.95;1.60;;;;;;;;;;5093394;28;20059;-64
2023/09/15 07:55:57;;;;;;;4.00;1.70;;;;;;;;;;5095677;28;20134;-64
2023/09/15 07:58:24;;;;;;;2.53;1.38;;;;;;;;;;5095948;28;20063;-63
2023/09/15 08:00:51;;;;;;;3.05;1.50;;;;;;;;;;5081529;28;20409;-64
2023/09/15 08:03:18;;;;;;;3.92;1.50;;;;;;;;;;5084043;28;20059;-64
2023/09/15 08:05:46;;;;;;;2.35;1.27;;;;;;;;;;5082796;28;20055;-64
2023/09/15 08:08:13;;;;;;;2.90;1.42;;;;;;;;;;5082577;28;20493;-64
2023/09/15 08:10:39;;;;;;;2.15;1.20;;;;;;;;;;5084032;28;20062;-63
2023/09/15 08:13:06;;;;;;;1.95;1.15;;;;;;;;;;5083267;28;20052;-64
2023/09/15 08:15:33;;;;;;;1.73;1.00;;;;;;;;;;5085562;28;20041;-63
2023/09/15 08:18:01;;;;;;;2.22;0.90;;;;;;;;;;5078280;28;20052;-64
2023/09/15 08:20:28;;;;;;;3.00;1.38;;;;;;;;;;5087536;28;20440;-63
2023/09/15 08:22:57;;;;;;;1.83;1.17;;;;;;;;;;5092389;28;20059;-63
2023/09/15 08:25:24;;;;;;;2.95;1.30;;;;;;;;;;5094919;28;20087;-64
2023/09/15 08:27:51;;;;;;;2.22;1.33;;;;;;;;;;5090298;28;20071;-63
2023/09/15 08:30:22;;;;;;;2.47;1.17;;;;;;;;;;5094954;28;20048;-64
2023/09/15 08:32:49;;;;;;;4.22;1.30;;;;;;;;;;5094530;28;20048;-63
2023/09/15 08:35:16;;;;;;;1.77;0.93;;;;;;;;;;5094011;28;20063;-63
2023/09/15 08:37:42;;;;;;;2.22;1.00;;;;;;;;;;5083033;28;20405;-64
2023/09/15 08:40:11;;;;;;;1.80;1.10;;;;;;;;;;5082172;28;20497;-63
2023/09/15 08:42:38;;;;;;;2.30;1.17;;;;;;;;;;5089032;28;20500;-64
2023/09/15 08:45:07;;;;;;;3.03;0.93;;;;;;;;;;5094475;28;20048;-63
2023/09/15 08:47:35;;;;;;;2.80;0.90;;;;;;;;;;5094667;28;20473;-63
2023/09/15 08:50:03;;;;;;;1.55;0.98;;;;;;;;;;5084783;28;20059;-64
2023/09/15 08:52:30;;;;;;;2.47;0.93;;;;;;;;;;5073160;28;20056;-64
2023/09/15 08:54:57;;;;;;;2.57;1.13;;;;;;;;;;5076090;28;20596;-63
2023/09/15 08:57:26;;;;;;;2.30;1.00;;;;;;;;;;5090389;28;20067;-63
2023/09/15 08:59:53;;;;;;;1.90;1.10;;;;;;;;;;5084017;28;20048;-64
2023/09/15 09:02:20;;;;;;;;;;;;;;;;;;5083985;28;20056;-63
2023/09/15 09:04:47;;;;;;;1.60;0.90;;;;;;;;;;5088102;28;19924;-63
2023/09/15 09:07:14;;;;;;;3.15;0.93;;;;;;;;;;5079962;28;20052;-63
2023/09/15 09:09:42;;;;;;;3.05;1.50;;;;;;;;;;5086978;28;20056;-63
2023/09/15 09:12:09;;;;;;;3.15;1.10;;;;;;;;;;5086618;28;20359;-63
2023/09/15 09:14:37;;;;;;;1.48;0.88;;;;;;;;;;5083723;28;20092;-63
2023/09/15 09:17:05;;;;;;;3.30;1.50;;;;;;;;;;5081895;28;20497;-63
2023/09/15 09:19:35;;;;;;;1.98;0.90;;;;;;;;;;5086603;28;20508;-62
2023/09/15 09:22:02;;;;;;;1.45;0.90;;;;;;;;;;5086793;28;20404;-63
2023/09/15 09:24:29;;;;;;;1.45;0.80;;;;;;;;;;5088574;28;20481;-62
2023/09/15 09:26:56;;;;;;;2.80;0.83;;;;;;;;;;5090405;28;20401;-62
2023/09/15 09:29:25;;;;;;;1.17;0.93;;;;;;;;;;5091314;28;20416;-63
2023/09/15 09:31:53;;;;;;;1.52;0.80;;;;;;;;;;5081370;28;20493;-63
2023/09/15 09:34:20;;;;;;;3.60;1.15;;;;;;;;;;5090694;28;20055;-62
2023/09/15 09:36:48;;;;;;;1.57;0.73;;;;;;;;;;5087029;28;20056;-62
2023/09/15 09:39:15;;;;;;;2.08;1.13;;;;;;;;;;5086384;28;20604;-62
2023/09/15 09:41:42;;;;;;;1.73;0.90;;;;;;;;;;5086812;28;20527;-62
2023/09/15 09:44:09;;;;;;;1.52;0.70;;;;;;;;;;5091829;28;20424;-63
2023/09/15 09:46:36;;;;;;;2.27;0.90;;;;;;;;;;5081245;28;20397;-63
2023/09/15 09:49:04;;;;;;;1.40;0.82;;;;;;;;;;5087477;28;20054;-62
2023/09/15 09:51:32;;;;;;;1.33;0.63;;;;;;;;;;5070893;28;20488;-62
2023/09/15 09:53:58;;;;;;;;;;;;;;;;;;5085888;28;20409;-63
2023/09/15 09:56:25;;;;;;;1.93;0.83;;;;;;;;;;5080631;28;19920;-63
2023/09/15 09:58:52;;;;;;;2.92;0.70;;;;;;;;;;5088278;28;20055;-63
2023/09/15 10:01:20;;;;;;;1.25;0.93;;;;;;;;;;5073464;28;20162;-62
2023/09/15 10:03:46;;;;;;;0.98;0.57;;;;;;;;;;5073987;28;20048;-62
2023/09/15 10:06:14;;;;;;;2.65;0.88;;;;;;;;;;5076326;28;20055;-63
2023/09/15 10:08:43;;;;;;;0.90;0.40;;;;;;;;;;5083306;28;20437;-62
2023/09/15 10:11:10;;;;;;;1.55;0.70;;;;;;;;;;5086647;28;20477;-63
2023/09/15 10:13:38;;;;;;;4.47;1.05;;;;;;;;;;5086203;28;20048;-63
2023/09/15 10:16:05;;;;;;;1.55;0.70;;;;;;;;;;5080832;28;20158;-63
2023/09/15 10:18:32;;;;;;;4.03;0.95;;;;;;;;;;5079984;28;20060;-63
2023/09/15 10:20:59;;;;;;;2.50;0.75;;;;;;;;;;5080701;28;20538;-63
2023/09/15 10:23:27;;;;;;;2.45;0.88;;;;;;;;;;5078535;28;20075;-63
2023/09/15 10:25:54;;;;;;;2.10;0.80;;;;;;;;;;5084713;28;20048;-63
2023/09/15 10:28:22;;;;;;;1.23;0.70;;;;;;;;;;5072285;28;20067;-63
2023/09/15 10:30:53;;;;;;;1.70;1.08;;;;;;;;;;5071785;28;20048;-63
2023/09/15 10:33:22;;;;;;;2.55;1.20;;;;;;;;;;5082122;28;20497;-63
2023/09/15 10:35:49;;;;;;;2.35;1.00;;;;;;;;;;5081423;28;20048;-63
2023/09/15 10:38:25;;;;;;;1.45;0.90;;;;;;;;;;5072776;28;20055;-63
2023/09/15 10:40:54;;;;;;;1.67;0.82;;;;;;;;;;5072749;28;20079;-60
2023/09/15 10:43:21;;;;;;;1.02;0.70;;;;;;;;;;5072946;28;20075;-61
2023/09/15 10:45:55;;;;;;;1.30;0.80;;;;;;;;;;5071210;28;20056;-61
2023/09/15 10:48:22;;;;;;;1.65;0.98;;;;;;;;;;5072664;28;20060;-63
2023/09/15 10:50:49;;;;;;;1.38;0.80;;;;;;;;;;5080214;28;20055;-62
2023/09/15 10:53:20;;;;;;;2.15;0.90;;;;;;;;;;5092755;28;20048;-63
2023/09/15 10:55:47;;;;;;;1.50;1.10;;;;;;;;;;5081170;28;20055;-62
2023/09/15 10:58:15;;;;;;;1.63;0.93;;;;;;;;;;5072737;28;20064;-62
2023/09/15 11:00:42;;;;;;;1.55;1.00;;;;;;;;;;5072174;28;20049;-62
2023/09/15 11:03:09;;;;;;;1.50;0.80;;;;;;;;;;5072280;28;20053;-63
2023/09/15 11:05:37;;;;;;;1.80;1.00;;;;;;;;;;5073535;28;20111;-63
2023/09/15 11:08:05;;;;;;;1.90;1.05;;;;;;;;;;5092783;28;20059;-63
2023/09/15 11:10:32;;;;;;;1.15;0.68;;;;;;;;;;5092407;28;20389;-62
2023/09/15 11:13:00;;;;;;;1.85;0.90;;;;;;;;;;5092698;28;20366;-63
2023/09/15 11:15:28;;;;;;;1.70;0.93;;;;;;;;;;5083746;28;20045;-63
2023/09/15 11:17:55;;;;;;;1.50;0.80;;;;;;;;;;5072562;28;20059;-63
2023/09/15 11:20:22;;;;;;;2.33;1.05;;;;;;;;;;5074923;28;20059;-63
2023/09/15 11:22:54;;;;;;;1.92;1.05;;;;;;;;;;5092531;28;20401;-63
2023/09/15 11:25:21;;;;;;;2.13;0.90;;;;;;;;;;5090926;28;20083;-64
2023/09/15 11:27:48;;;;;;;2.30;0.90;;;;;;;;;;5080666;28;20406;-63
2023/09/15 11:30:15;;;;;;;1.42;0.60;;;;;;;;;;5071301;28;20052;-63
2023/09/15 11:32:43;;;;;;;1.52;0.90;;;;;;;;;;5091338;28;20060;-63
2023/09/15 11:35:12;;;;;;;2.65;0.95;;;;;;;;;;5087907;28;20047;-63
2023/09/15 11:37:39;;;;;;;1.95;1.05;;;;;;;;;;5088029;28;20055;-62
2023/09/15 11:40:07;;;;;;;;;;;;;;;;;;5091883;28;20059;-62
2023/09/15 11:42:34;;;;;;;1.88;0.90;;;;;;;;;;5092053;28;19920;-62
2023/09/15 11:45:01;;;;;;;1.92;0.82;;;;;;;;;;5091207;28;20063;-63
2023/09/15 11:47:31;;;;;;;1.90;1.13;;;;;;;;;;5092211;28;20056;-63
2023/09/15 11:49:59;;;;;;;3.05;1.20;;;;;;;;;;5088375;28;20062;-61
2023/09/15 11:52:26;;;;;;;0.93;0.52;;;;;;;;;;5071268;28;20056;-61
2023/09/15 11:54:53;;;;;;;1.67;0.82;;;;;;;;;;5071778;28;20053;-61
2023/09/15 11:57:20;;;;;;;1.20;0.80;;;;;;;;;;5073474;28;20083;-62
2023/09/15 11:59:47;;;;;;;1.00;0.68;;;;;;;;;;5075657;28;20060;-61
2023/09/15 12:02:15;;;;;;;1.80;0.90;;;;;;;;;;5075759;28;20595;-61
2023/09/15 12:04:42;;;;;;;1.67;0.85;;;;;;;;;;5075468;28;20152;-62
2023/09/15 12:07:10;;;;;;;1.52;0.60;;;;;;;;;;5089473;28;20473;-62
2023/09/15 12:09:37;;;;;;;1.55;0.95;;;;;;;;;;5095407;28;20075;-61
2023/09/15 12:12:04;;;;;;;2.78;0.85;;;;;;;;;;5095647;28;20115;-61
2023/09/15 12:14:31;;;;;;;2.50;0.90;;;;;;;;;;5087689;28;20044;-62
2023/09/15 12:16:58;;;;;;;1.90;1.10;;;;;;;;;;5083643;28;20410;-62
2023/09/15 12:19:24;;;;;;;;;;;;;;;;;;5092636;28;20058;-61
2023/09/15 12:21:52;;;;;;;0.93;0.70;;;;;;;;;;5085805;28;19920;-61
2023/09/15 12:24:21;;;;;;;1.83;0.98;;;;;;;;;;5084319;28;20052;-61
2023/09/15 12:26:48;;;;;;;5.22;0.98;;;;;;;;;;5079314;28;21145;-62
2023/09/15 12:29:16;;;;;;;1.08;0.65;;;;;;;;;;5093468;28;20048;-61
2023/09/15 12:31:44;;;;;;;1.55;0.70;;;;;;;;;;5082010;28;20063;-61
2023/09/15 12:34:19;;;;;;;2.33;0.80;;;;;;;;;;5080852;28;20059;-62
2023/09/15 12:36:46;;;;;;;3.13;1.02;;;;;;;;;;5085971;28;20051;-62
2023/09/15 12:39:13;;;;;;;2.00;0.90;;;;;;;;;;5078253;28;20501;-61
2023/09/15 12:41:42;;;;;;;1.70;1.20;;;;;;;;;;5094730;28;20063;-62
2023/09/15 12:44:10;;;;;;;1.10;0.68;;;;;;;;;;5079427;28;20051;-61
2023/09/15 12:46:36;;;;;;;1.05;0.63;;;;;;;;;;5080457;28;20059;-61
2023/09/15 12:49:04;;;;;;;2.97;0.93;;;;;;;;;;5074622;28;20409;-61
2023/09/15 12:51:30;;;;;;;;;;;;;;;;;;5083596;28;20059;-62
2023/09/15 12:53:57;;;;;;;1.55;0.73;;;;;;;;;;5095198;28;19957;-62
2023/09/15 12:56:25;;;;;;;2.10;1.00;;;;;;;;;;5094405;28;20055;-62
2023/09/15 12:58:55;;;;;;;1.15;0.68;;;;;;;;;;5094624;28;20488;-63
2023/09/15 13:01:22;;;;;;;1.98;0.90;;;;;;;;;;5082634;28;20107;-63
2023/09/15 13:03:49;;;;;;;1.20;0.70;;;;;;;;;;5073078;28;20538;-62
2023/09/15 13:06:18;;;;;;;1.10;0.70;;;;;;;;;;5087444;28;20048;-61
2023/09/15 13:08:47;;;;;;;1.35;0.90;;;;;;;;;;5080108;28;20052;-61
2023/09/15 13:11:16;;;;;;;1.17;0.70;;;;;;;;;;5081233;28;20048;-61
2023/09/15 13:13:43;;;;;;;1.83;0.60;;;;;;;;;;5079165;28;20063;-62
2023/09/15 13:16:14;;;;;;;1.15;0.80;;;;;;;;;;5082980;28;20053;-62
2023/09/15 13:18:41;;;;;;;1.30;0.80;;;;;;;;;;5082862;28;20056;-63
2023/09/15 13:21:09;;;;;;;2.23;0.90;;;;;;;;;;5081475;28;20049;-62
2023/09/15 13:23:38;;;;;;;1.50;0.98;;;;;;;;;;5075374;28;20851;-62
2023/09/15 13:26:05;;;;;;;1.55;0.95;;;;;;;;;;5076142;28;20052;-63
2023/09/15 13:28:33;;;;;;;1.42;0.90;;;;;;;;;;5074188;28;20059;-62
2023/09/15 13:31:02;;;;;;;1.05;0.65;;;;;;;;;;5076145;28;20059;-62
2023/09/15 13:33:30;;;;;;;1.10;0.60;;;;;;;;;;5090646;28;20052;-62
2023/09/15 13:35:57;;;;;;;1.70;0.95;;;;;;;;;;5082873;28;20048;-62
2023/09/15 13:38:26;;;;;;;1.40;0.82;;;;;;;;;;5090454;28;20079;-62
2023/09/15 13:40:53;;;;;;;1.35;0.75;;;;;;;;;;5087036;28;20394;-62
2023/09/15 13:43:21;;;;;;;2.03;0.77;;;;;;;;;;5082029;28;20147;-62
2023/09/15 13:45:52;;;;;;;1.45;0.70;;;;;;;;;;5081795;28;20055;-62
2023/09/15 13:48:19;;;;;;;1.08;0.63;;;;;;;;;;5091512;28;20048;-62
2023/09/15 13:50:47;;;;;;;1.00;0.70;;;;;;;;;;5082205;28;20051;-62
2023/09/15 13:53:14;;;;;;;;;;;;;;;;;;5082651;28;20052;-62
2023/09/15 13:55:40;;;;;;;1.73;0.65;;;;;;;;;;5084954;28;19927;-61
2023/09/15 13:58:07;;;;;;;1.77;0.60;;;;;;;;;;5083002;28;20542;-60
2023/09/15 14:00:34;;;;;;;1.48;0.88;;;;;;;;;;5075211;28;20059;-62
2023/09/15 14:03:01;;;;;;;1.95;0.98;;;;;;;;;;5088299;28;20063;-62
2023/09/15 14:05:29;;;;;;;1.33;0.82;;;;;;;;;;5076641;28;20071;-61
2023/09/15 14:07:58;;;;;;;1.60;0.80;;;;;;;;;;5073611;28;20049;-62
2023/09/15 14:10:25;;;;;;;1.20;0.80;;;;;;;;;;5087894;28;20531;-61
2023/09/15 14:12:52;;;;;;;1.77;0.65;;;;;;;;;;5086494;28;20512;-62
2023/09/15 14:15:18;;;;;;;1.38;0.88;;;;;;;;;;5076717;28;20524;-60
2023/09/15 14:17:45;;;;;;;2.00;1.13;;;;;;;;;;5082936;28;20056;-62
2023/09/15 14:20:12;;;;;;;1.13;0.55;;;;;;;;;;5085560;28;20051;-62
2023/09/15 14:22:39;;;;;;;1.55;0.80;;;;;;;;;;5086567;28;20052;-61
2023/09/15 14:25:07;;;;;;;1.23;0.88;;;;;;;;;;5087067;28;20056;-61
2023/09/15 14:27:34;;;;;;;1.52;0.98;;;;;;;;;;5085193;28;20052;-62
2023/09/15 14:30:01;;;;;;;1.10;0.70;;;;;;;;;;5087201;28;20052;-62
2023/09/15 14:32:28;;;;;;;1.52;0.70;;;;;;;;;;5075381;28;20048;-61
2023/09/15 14:34:55;;;;;;;2.15;0.73;;;;;;;;;;5077526;28;20052;-62
2023/09/15 14:37:30;;;;;;;0.93;0.60;;;;;;;;;;5083968;28;20064;-62
2023/09/15 14:39:57;;;;;;;1.52;1.05;;;;;;;;;;5084804;28;20390;-62
2023/09/15 14:42:25;;;;;;;1.60;0.98;;;;;;;;;;5082365;28;20063;-62
2023/09/15 14:44:52;;;;;;;2.30;1.13;;;;;;;;;;5088111;28;20481;-62
2023/09/15 14:47:18;;;;;;;1.70;0.75;;;;;;;;;;5085985;28;20055;-62